Time;durP1;ratioP1;P1;durP2;ratioP2;P2;SDS_P1;SDS_P2;PMS_P1;PMS_P2;Temp;Humidity;BMP_temperature;BMP_pressure;BME280_temperature;BME280_humidity;BME280_pressure;Samples;Min_cycle;Max_cycle;Signal;HPM_P1;HPM_P2
2023/04/14 00:00:25;;;;;;;3.93;2.30;;;;;;;5.05;100.00;100866.91;5090642;28;20102;-35
2023/04/14 00:02:51;;;;;;;5.80;2.50;;;;;;;5.01;100.00;100867.50;5089866;28;20024;-35
2023/04/14 00:05:16;;;;;;;5.95;2.72;;;;;;;4.97;100.00;100872.41;5090080;28;20499;-36
2023/04/14 00:07:42;;;;;;;8.68;3.22;;;;;;;4.95;100.00;100865.59;5089657;28;20026;-35
2023/04/14 00:10:07;;;;;;;5.63;2.97;;;;;;;4.91;100.00;100867.84;5090529;28;20059;-35
2023/04/14 00:12:33;;;;;;;3.92;2.42;;;;;;;4.87;100.00;100870.06;5081443;28;20025;-35
2023/04/14 00:14:58;;;;;;;5.37;2.77;;;;;;;4.89;100.00;100870.72;5076393;28;20028;-35
2023/04/14 00:17:23;;;;;;;5.93;2.27;;;;;;;4.86;100.00;100872.94;5076087;28;20049;-36
2023/04/14 00:19:49;;;;;;;5.90;2.60;;;;;;;4.90;100.00;100872.38;5076817;28;20023;-35
2023/04/14 00:22:14;;;;;;;4.73;2.40;;;;;;;4.91;100.00;100873.19;5075920;28;20021;-35
2023/04/14 00:24:42;;;;;;;4.95;2.30;;;;;;;4.88;100.00;100869.06;5076424;28;20029;-35
2023/04/14 00:27:09;;;;;;;6.40;2.53;;;;;;;4.91;100.00;100874.00;5076072;28;20055;-35
2023/04/14 00:29:35;;;;;;;6.05;2.92;;;;;;;4.84;100.00;100866.97;5076397;28;20039;-35
2023/04/14 00:32:00;;;;;;;6.15;2.47;;;;;;;4.88;100.00;100877.09;5075763;28;20016;-35
2023/04/14 00:34:25;;;;;;;5.77;2.70;;;;;;;4.85;100.00;100879.34;5075737;28;20473;-35
2023/04/14 00:36:51;;;;;;;5.60;3.00;;;;;;;4.80;100.00;100882.59;5076583;28;20033;-35
2023/04/14 00:39:16;;;;;;;4.63;2.60;;;;;;;4.74;100.00;100875.31;5075869;28;20123;-35
2023/04/14 00:41:42;;;;;;;6.33;2.63;;;;;;;4.64;100.00;100862.25;5076686;28;20027;-35
2023/04/14 00:44:08;;;;;;;7.55;2.42;;;;;;;4.64;100.00;100874.81;5075616;28;20538;-35
2023/04/14 00:46:35;;;;;;;4.30;2.40;;;;;;;4.57;100.00;100872.06;5075859;28;20503;-35
2023/04/14 00:49:00;;;;;;;4.22;2.40;;;;;;;4.52;100.00;100874.47;5075707;28;20440;-36
2023/04/14 00:51:26;;;;;;;4.88;2.50;;;;;;;4.53;100.00;100870.78;5076024;28;20119;-36
2023/04/14 00:53:52;;;;;;;4.30;2.45;;;;;;;4.56;100.00;100888.31;5075625;28;20025;-35
2023/04/14 00:56:18;;;;;;;;;;;;;;;4.72;100.00;100884.56;5076629;28;20052;-35
2023/04/14 00:58:45;;;;;;;5.57;2.58;;;;;;;4.61;100.00;100889.41;5075544;28;19915;-35
2023/04/14 01:01:11;;;;;;;6.55;2.67;;;;;;;4.57;100.00;100884.63;5075389;28;20049;-35
2023/04/14 01:03:37;;;;;;;5.63;3.50;;;;;;;4.54;100.00;100891.19;5075395;28;20025;-35
2023/04/14 01:06:03;;;;;;;5.63;2.78;;;;;;;4.56;100.00;100897.19;5075732;28;20021;-35
2023/04/14 01:08:28;;;;;;;7.15;3.35;;;;;;;4.42;100.00;100879.31;5075605;28;20031;-35
2023/04/14 01:11:18;;;;;;;7.60;2.78;;;;;;;4.54;100.00;100887.66;5075700;28;20035;-35
2023/04/14 01:14:01;;;;;;;6.50;3.15;;;;;;;4.49;100.00;100895.44;5075284;28;20460;-35
2023/04/14 01:16:32;;;;;;;6.85;2.65;;;;;;;4.49;100.00;100895.44;5074935;28;20024;-35
2023/04/14 01:19:05;;;;;;;7.13;2.88;;;;;;;4.39;100.00;100885.91;5075148;28;20029;-35
2023/04/14 01:21:34;;;;;;;8.38;3.03;;;;;;;4.42;100.00;100902.59;5075087;28;20024;-35
2023/04/14 01:24:08;;;;;;;7.15;3.15;;;;;;;4.45;100.00;100896.88;5074041;28;20425;-35
2023/04/14 01:26:34;;;;;;;7.47;2.95;;;;;;;4.45;100.00;100902.22;5075320;28;20024;-35
2023/04/14 01:29:18;;;;;;;7.22;3.30;;;;;;;4.52;100.00;100900.44;5074606;28;20017;-35
2023/04/14 01:31:47;;;;;;;5.55;2.42;;;;;;;4.45;100.00;100900.38;5075152;28;20020;-35
2023/04/14 01:34:26;;;;;;;7.45;3.35;;;;;;;4.39;100.00;100899.28;5074749;28;20091;-35
2023/04/14 01:37:05;;;;;;;6.13;2.58;;;;;;;4.30;100.00;100892.38;5075381;28;20040;-35
2023/04/14 01:39:35;;;;;;;8.20;2.95;;;;;;;4.30;100.00;100897.72;5074712;28;20453;-36
2023/04/14 01:42:05;;;;;;;6.75;2.75;;;;;;;4.19;100.00;100884.81;5074547;28;20471;-36
2023/04/14 01:44:32;;;;;;;6.03;2.75;;;;;;;4.24;100.00;100901.13;5074630;28;20021;-36
2023/04/14 01:47:03;;;;;;;6.95;2.72;;;;;;;4.18;100.00;100901.91;5074574;28;20021;-35
2023/04/14 01:49:31;;;;;;;6.10;2.40;;;;;;;4.23;100.00;100901.34;5075348;28;20119;-35
2023/04/14 01:51:57;;;;;;;6.10;2.85;;;;;;;4.14;100.00;100898.75;5074475;28;20099;-35
2023/04/14 01:54:23;;;;;;;5.83;2.43;;;;;;;4.17;100.00;100910.94;5074496;28;20432;-35
2023/04/14 01:56:51;;;;;;;5.10;2.75;;;;;;;4.12;100.00;100908.00;5074125;28;20100;-35
2023/04/14 01:59:19;;;;;;;6.85;2.80;;;;;;;3.99;100.00;100900.63;5074098;28;20017;-35
2023/04/14 02:01:47;;;;;;;4.80;2.42;;;;;;;4.05;100.00;100910.63;5074821;28;20066;-35
2023/04/14 02:04:14;;;;;;;5.15;2.58;;;;;;;4.06;100.00;100911.44;5073904;28;20031;-35
2023/04/14 02:06:41;;;;;;;4.88;2.30;;;;;;;3.93;100.00;100900.56;5075016;28;20032;-35
2023/04/14 02:09:11;;;;;;;6.05;2.42;;;;;;;4.00;100.00;100912.16;5074462;28;20024;-35
2023/04/14 02:11:37;;;;;;;5.80;2.53;;;;;;;3.96;100.00;100918.94;5074091;28;20020;-35
2023/04/14 02:14:04;;;;;;;6.00;2.50;;;;;;;3.92;100.00;100925.66;5073097;28;20377;-35
2023/04/14 02:16:30;;;;;;;5.53;2.60;;;;;;;3.88;100.00;100909.13;5074344;28;20099;-35
2023/04/14 02:18:57;;;;;;;5.55;2.83;;;;;;;3.90;100.00;100914.28;5073999;28;20021;-35
2023/04/14 02:21:25;;;;;;;7.38;2.17;;;;;;;3.93;100.00;100925.47;5074736;28;20361;-35
2023/04/14 02:23:51;;;;;;;10.93;3.00;;;;;;;3.95;100.00;100925.28;5074450;28;20021;-35
2023/04/14 02:26:22;;;;;;;7.10;2.70;;;;;;;3.93;100.00;100925.47;5073957;28;20361;-35
2023/04/14 02:28:59;;;;;;;5.72;2.25;;;;;;;3.90;100.00;100916.97;5073877;28;20024;-35
2023/04/14 02:31:29;;;;;;;6.15;2.20;;;;;;;3.80;100.00;100920.75;5074170;28;20515;-35
2023/04/14 02:33:59;;;;;;;6.07;2.80;;;;;;;3.82;100.00;100926.75;5073782;28;20047;-35
2023/04/14 02:36:54;;;;;;;7.03;2.10;;;;;;;3.83;100.00;100925.75;5074423;28;20364;-35
2023/04/14 02:39:36;;;;;;;6.00;2.10;;;;;;;3.76;100.00;100932.84;5074309;28;20023;-35
2023/04/14 02:42:10;;;;;;;5.10;2.35;;;;;;;3.75;100.00;100941.06;5073928;28;20021;-35
2023/04/14 02:44:55;;;;;;;5.25;2.47;;;;;;;3.72;100.00;100942.25;5074247;28;20020;-36
2023/04/14 02:47:36;;;;;;;5.85;2.47;;;;;;;3.64;100.00;100928.13;5073970;28;20016;-35
2023/04/14 02:50:04;;;;;;;7.03;2.80;;;;;;;3.58;100.00;100938.56;5073343;28;20051;-35
2023/04/14 02:52:31;;;;;;;5.10;2.40;;;;;;;3.39;100.00;100920.38;5074189;28;20031;-35
2023/04/14 02:54:58;;;;;;;4.93;2.33;;;;;;;3.65;100.00;100948.50;5074212;28;20020;-35
2023/04/14 02:57:25;;;;;;;7.80;2.60;;;;;;;3.58;100.00;100943.91;5073553;28;20027;-35
2023/04/14 02:59:51;;;;;;;7.63;2.42;;;;;;;3.73;100.00;100945.75;5074027;28;20025;-35
2023/04/14 03:02:17;;;;;;;5.82;2.42;;;;;;;3.72;100.00;100952.97;5073553;28;20021;-35
2023/04/14 03:04:43;;;;;;;4.05;2.28;;;;;;;3.65;100.00;100938.66;5073826;28;20024;-35
2023/04/14 03:07:12;;;;;;;4.88;2.03;;;;;;;3.67;100.00;100950.00;5073480;28;20013;-35
2023/04/14 03:09:39;;;;;;;7.00;2.30;;;;;;;3.63;100.00;100947.88;5073187;28;20024;-35
2023/04/14 03:12:06;;;;;;;4.70;2.10;;;;;;;3.58;100.00;100948.44;5074214;28;20032;-35
2023/04/14 03:14:34;;;;;;;6.78;2.35;;;;;;;3.59;100.00;100950.06;5073763;28;20047;-35
2023/04/14 03:17:00;;;;;;;4.78;2.22;;;;;;;3.69;100.00;100953.31;5073712;28;20345;-35
2023/04/14 03:19:27;;;;;;;;;;;;;;;3.79;100.00;100953.88;5074038;28;20024;-35
2023/04/14 03:21:54;;;;;;;6.60;2.78;;;;;;;3.65;100.00;100957.38;5073907;28;19912;-35
2023/04/14 03:24:26;;;;;;;5.25;2.28;;;;;;;3.68;100.00;100953.50;5072988;28;20448;-36
2023/04/14 03:27:00;;;;;;;8.93;2.63;;;;;;;3.58;100.00;100935.88;5073572;28;20074;-35
2023/04/14 03:29:30;;;;;;;4.32;2.20;;;;;;;3.58;100.00;100940.41;5073795;28;20028;-36
2023/04/14 03:31:59;;;;;;;4.10;2.60;;;;;;;3.48;100.00;100935.31;5073521;28;20029;-35
2023/04/14 03:34:29;;;;;;;4.85;2.08;;;;;;;3.45;100.00;100942.88;5073194;28;20464;-35
2023/04/14 03:36:56;;;;;;;3.70;2.10;;;;;;;3.55;100.00;100951.44;5072914;28;20028;-35
2023/04/14 03:39:26;;;;;;;5.07;2.53;;;;;;;3.38;100.00;100945.44;5073740;28;20028;-35
2023/04/14 03:41:54;;;;;;;6.47;3.03;;;;;;;3.43;100.00;100955.59;5073862;28;20032;-35
2023/04/14 03:44:21;;;;;;;3.80;2.10;;;;;;;3.40;100.00;100950.59;5073065;28;20052;-35
2023/04/14 03:46:48;;;;;;;6.20;2.50;;;;;;;3.34;100.00;100950.31;5073788;28;20099;-35
2023/04/14 03:49:16;;;;;;;4.05;2.30;;;;;;;3.33;100.00;100958.53;5076775;28;20063;-35
2023/04/14 03:51:43;;;;;;;8.10;2.63;;;;;;;3.26;100.00;100945.03;5077371;28;20024;-35
2023/04/14 03:54:10;;;;;;;6.57;2.17;;;;;;;3.24;100.00;100960.44;5076406;28;20090;-35
2023/04/14 03:56:39;;;;;;;6.57;2.35;;;;;;;3.21;100.00;100958.09;5076754;28;20028;-35
2023/04/14 03:59:10;;;;;;;5.68;2.88;;;;;;;3.12;100.00;100948.50;5076558;28;20033;-36
2023/04/14 04:01:36;;;;;;;5.93;2.35;;;;;;;3.20;100.00;100959.13;5077682;28;20346;-35
2023/04/14 04:04:05;;;;;;;6.15;2.85;;;;;;;3.13;100.00;100946.69;5076268;28;20025;-35
2023/04/14 04:06:32;;;;;;;6.13;2.35;;;;;;;3.11;100.00;100960.19;5076822;28;20456;-35
2023/04/14 04:08:58;;;;;;;6.05;2.30;;;;;;;3.17;100.00;100959.47;5076196;28;20461;-35
2023/04/14 04:11:26;;;;;;;4.80;2.10;;;;;;;3.13;100.00;100950.19;5077075;28;20025;-35
2023/04/14 04:13:54;;;;;;;4.88;2.50;;;;;;;3.17;100.00;100970.16;5076350;28;20032;-35
2023/04/14 04:16:21;;;;;;;6.03;1.90;;;;;;;3.16;100.00;100963.16;5076097;28;20028;-35
2023/04/14 04:18:48;;;;;;;5.60;2.63;;;;;;;3.19;100.00;100964.66;5076302;28;20016;-35
2023/04/14 04:21:16;;;;;;;6.07;2.15;;;;;;;3.14;100.00;100975.06;5076213;28;20024;-35
2023/04/14 04:23:46;;;;;;;6.85;2.67;;;;;;;3.20;100.00;100975.16;5076189;28;20039;-35
2023/04/14 04:26:12;;;;;;;4.32;2.25;;;;;;;3.20;100.00;100974.34;5077071;28;20349;-35
2023/04/14 04:28:39;;;;;;;4.32;2.22;;;;;;;3.21;100.00;100971.47;5076228;28;20024;-35
2023/04/14 04:31:05;;;;;;;4.82;2.38;;;;;;;3.15;100.00;100966.84;5075834;28;20039;-35
2023/04/14 04:33:33;;;;;;;8.10;2.50;;;;;;;3.11;100.00;100970.88;5075813;28;20025;-35
2023/04/14 04:36:00;;;;;;;7.65;2.83;;;;;;;3.11;100.00;100986.91;5076087;28;20024;-35
2023/04/14 04:38:25;;;;;;;5.30;2.13;;;;;;;3.08;100.00;100982.78;5075951;28;20028;-35
2023/04/14 04:40:50;;;;;;;6.80;2.60;;;;;;;3.10;100.00;100975.41;5075983;28;20036;-35
2023/04/14 04:43:17;;;;;;;7.13;3.20;;;;;;;3.10;100.00;100990.59;5075887;28;20016;-35
2023/04/14 04:46:12;;;;;;;5.43;2.35;;;;;;;3.12;100.00;100983.22;5076144;28;20263;-35
2023/04/14 04:48:37;;;;;;;4.72;2.67;;;;;;;3.07;100.00;100986.47;5075861;28;20338;-35
2023/04/14 04:51:03;;;;;;;6.00;2.50;;;;;;;3.04;100.00;100984.13;5075374;28;20115;-35
2023/04/14 04:53:28;;;;;;;9.07;2.60;;;;;;;3.01;100.00;100987.16;5075702;28;20040;-35
2023/04/14 04:55:55;;;;;;;7.37;2.40;;;;;;;2.96;100.00;100975.34;5076003;28;20024;-35
2023/04/14 04:58:20;;;;;;;4.43;2.10;;;;;;;3.03;100.00;100978.97;5075481;28;20047;-35
2023/04/14 05:00:46;;;;;;;3.83;2.30;;;;;;;3.08;100.00;100977.44;5076187;28;20504;-42
2023/04/14 05:03:11;;;;;;;6.35;2.50;;;;;;;3.09;100.00;100979.09;5075523;28;20047;-35
2023/04/14 05:05:36;;;;;;;5.20;2.37;;;;;;;3.17;100.00;100970.16;5075234;28;20024;-35
2023/04/14 05:08:02;;;;;;;5.90;2.67;;;;;;;3.22;100.00;100972.28;5075428;28;20052;-35
2023/04/14 05:10:28;;;;;;;5.18;2.15;;;;;;;3.21;100.00;100966.13;5075721;28;20085;-35
2023/04/14 05:12:53;;;;;;;4.57;2.40;;;;;;;3.20;100.00;100972.50;5075582;28;20071;-36
2023/04/14 05:15:18;;;;;;;6.37;2.33;;;;;;;3.30;100.00;100974.91;5075625;28;20468;-36
2023/04/14 05:17:44;;;;;;;7.23;2.50;;;;;;;3.32;100.00;100972.91;5075206;28;20051;-36
2023/04/14 05:20:10;;;;;;;6.03;2.92;;;;;;;3.33;100.00;100982.59;5075706;28;20103;-36
2023/04/14 05:22:35;;;;;;;4.70;2.50;;;;;;;3.38;100.00;100968.69;5075068;28;20093;-36
2023/04/14 05:25:01;;;;;;;4.43;2.30;;;;;;;3.38;100.00;100974.03;5074847;28;20047;-36
2023/04/14 05:27:26;;;;;;;4.97;2.60;;;;;;;3.43;100.00;100969.78;5075060;28;20063;-36
2023/04/14 05:29:51;;;;;;;7.40;2.90;;;;;;;3.50;100.00;100969.88;5075409;28;20029;-36
2023/04/14 05:32:17;;;;;;;7.17;2.40;;;;;;;3.51;100.00;100960.84;5074901;28;20016;-37
2023/04/14 05:34:42;;;;;;;3.72;2.40;;;;;;;3.61;100.00;100962.28;5074586;28;20029;-36
2023/04/14 05:37:08;;;;;;;5.00;2.40;;;;;;;3.69;100.00;100964.00;5074859;28;20029;-36
2023/04/14 05:39:34;;;;;;;6.20;2.57;;;;;;;3.70;100.00;100960.31;5075098;28;20031;-36
2023/04/14 05:42:00;;;;;;;7.00;2.45;;;;;;;3.84;100.00;100966.69;5073455;28;20020;-37
2023/04/14 05:44:25;;;;;;;4.30;2.28;;;;;;;3.94;100.00;100963.75;5075557;28;20062;-37
2023/04/14 05:46:51;;;;;;;4.23;2.43;;;;;;;3.99;100.00;100958.69;5075506;28;20119;-36
2023/04/14 05:49:16;;;;;;;4.65;2.40;;;;;;;4.08;100.00;100968.28;5075385;28;20452;-36
2023/04/14 05:51:42;;;;;;;6.50;3.20;;;;;;;4.16;100.00;100957.47;5074593;28;20036;-36
2023/04/14 05:54:07;;;;;;;5.67;2.77;;;;;;;4.30;100.00;100970.00;5074534;28;20024;-36
2023/04/14 05:56:33;;;;;;;7.28;2.95;;;;;;;4.36;100.00;100966.59;5074479;28;20044;-35
2023/04/14 05:58:58;;;;;;;6.27;2.50;;;;;;;4.49;100.00;100975.78;5074375;28;20468;-35
2023/04/14 06:01:23;;;;;;;6.90;2.80;;;;;;;4.49;100.00;100955.22;5074003;28;20052;-36
2023/04/14 06:03:49;;;;;;;8.53;2.83;;;;;;;4.56;100.00;100963.31;5073943;28;20020;-35
2023/04/14 06:06:14;;;;;;;4.63;2.37;;;;;;;4.55;100.00;100945.59;5074657;28;20028;-35
2023/04/14 06:08:40;;;;;;;7.72;2.78;;;;;;;4.71;100.00;100969.47;5073905;28;20021;-35
2023/04/14 06:11:05;;;;;;;5.03;2.50;;;;;;;4.74;100.00;100966.41;5073747;28;20039;-35
2023/04/14 06:13:30;;;;;;;6.23;2.60;;;;;;;4.81;100.00;100963.78;5074124;28;20024;-35
2023/04/14 06:15:57;;;;;;;9.03;2.77;;;;;;;4.90;100.00;100963.47;5073091;28;20021;-35
2023/04/14 06:18:22;;;;;;;5.80;2.90;;;;;;;5.01;100.00;100958.63;5074064;28;20024;-35
2023/04/14 06:20:47;;;;;;;8.47;2.93;;;;;;;5.11;100.00;100961.81;5074283;28;20017;-35
2023/04/14 06:23:13;;;;;;;8.77;3.10;;;;;;;5.24;100.00;100959.25;5074073;28;20024;-35
2023/04/14 06:25:39;;;;;;;5.77;3.00;;;;;;;5.35;100.00;100957.91;5073591;28;20116;-35
2023/04/14 06:28:04;;;;;;;5.00;2.70;;;;;;;5.34;100.00;100950.88;5073590;28;20028;-35
2023/04/14 06:30:33;;;;;;;6.47;2.42;;;;;;;5.28;100.00;100943.63;5073508;28;20036;-35
2023/04/14 06:33:03;;;;;;;6.20;2.67;;;;;;;5.32;100.00;100966.31;5073572;28;20052;-35
2023/04/14 06:35:32;;;;;;;7.47;3.17;;;;;;;5.33;100.00;100957.28;5074026;28;20021;-35
2023/04/14 06:37:58;;;;;;;5.35;3.15;;;;;;;5.37;100.00;100958.56;5073772;28;20082;-35
2023/04/14 06:40:23;;;;;;;8.17;3.03;;;;;;;5.46;100.00;100962.72;5073490;28;20032;-35
2023/04/14 06:42:49;;;;;;;6.20;3.00;;;;;;;5.55;100.00;100952.69;5073479;28;20255;-35
2023/04/14 06:45:14;;;;;;;7.87;3.00;;;;;;;5.57;100.00;100938.06;5073812;28;20047;-35
2023/04/14 06:47:39;;;;;;;5.30;2.63;;;;;;;5.82;100.00;100967.94;5073372;28;20058;-35
2023/04/14 06:50:05;;;;;;;8.10;2.97;;;;;;;5.90;100.00;100957.06;5073703;28;20021;-35
2023/04/14 06:52:30;;;;;;;6.18;3.08;;;;;;;5.97;100.00;100948.25;5073622;28;20085;-36
2023/04/14 06:54:56;;;;;;;7.33;3.30;;;;;;;6.10;100.00;100953.66;5074225;28;20028;-35
2023/04/14 06:57:21;;;;;;;5.77;2.50;;;;;;;6.20;100.00;100954.16;5073324;28;20043;-35
2023/04/14 06:59:47;;;;;;;12.27;2.60;;;;;;;6.31;100.00;100950.06;5073060;28;20024;-36
2023/04/14 07:02:12;;;;;;;5.13;2.70;;;;;;;6.41;100.00;100951.34;5074771;28;20456;-35
2023/04/14 07:04:37;;;;;;;8.83;2.97;;;;;;;6.50;100.00;100943.94;5073854;28;20259;-35
2023/04/14 07:07:03;;;;;;;5.67;2.77;;;;;;;6.58;100.00;100942.91;5073892;28;20023;-35
2023/04/14 07:09:28;;;;;;;7.78;3.30;;;;;;;6.65;100.00;100936.53;5073508;28;20029;-36
2023/04/14 07:11:55;;;;;;;6.77;2.97;;;;;;;6.75;100.00;100938.00;5073514;28;20131;-35
2023/04/14 07:14:21;;;;;;;4.63;2.60;;;;;;;6.84;100.00;100942.19;5073433;28;20470;-35
2023/04/14 07:16:46;;;;;;;9.88;3.20;;;;;;;6.89;100.00;100937.84;5073459;28;20108;-35
2023/04/14 07:19:12;;;;;;;4.87;2.30;;;;;;;6.94;100.00;100929.97;5073180;28;20107;-35
2023/04/14 07:21:37;;;;;;;5.63;2.30;;;;;;;7.05;100.00;100941.16;5073532;28;20020;-35
2023/04/14 07:24:04;;;;;;;5.17;2.03;;;;;;;7.09;100.00;100928.97;5077182;28;20024;-35
2023/04/14 07:26:29;;;;;;;5.43;2.47;;;;;;;7.25;100.00;100941.19;5077061;28;20478;-35
2023/04/14 07:28:55;;;;;;;5.57;2.30;;;;;;;7.34;100.00;100929.19;5076973;28;20111;-35
2023/04/14 07:31:21;;;;;;;5.30;2.28;;;;;;;7.40;100.00;100923.78;5078382;28;20020;-35
2023/04/14 07:33:46;;;;;;;5.70;2.22;;;;;;;7.48;100.00;100923.56;5077222;28;20073;-35
2023/04/14 07:36:12;;;;;;;4.77;2.40;;;;;;;7.55;100.00;100920.88;5077524;28;20025;-35
2023/04/14 07:38:37;;;;;;;5.47;2.40;;;;;;;7.63;100.00;100922.53;5077371;28;20026;-36
2023/04/14 07:41:05;;;;;;;6.03;2.72;;;;;;;7.69;100.00;100927.06;5077003;28;20441;-35
2023/04/14 07:43:33;;;;;;;5.68;2.63;;;;;;;7.78;100.00;100919.59;5077075;28;20025;-35
2023/04/14 07:46:03;;;;;;;5.28;2.67;;;;;;;7.89;100.00;100916.25;5077464;28;20100;-35
2023/04/14 07:48:29;;;;;;;6.05;2.53;;;;;;;7.94;100.00;100914.56;5077131;28;20441;-36
2023/04/14 07:50:54;;;;;;;5.20;2.67;;;;;;;7.96;100.00;100903.59;5077452;28;20425;-35
2023/04/14 07:53:19;;;;;;;4.30;2.03;;;;;;;8.16;100.00;100907.03;5076785;28;20055;-36
2023/04/14 07:55:45;;;;;;;5.67;2.17;;;;;;;8.27;100.00;100909.06;5076530;28;20107;-35
2023/04/14 07:58:10;;;;;;;4.72;2.65;;;;;;;8.38;98.51;100915.66;5076679;28;20028;-36
2023/04/14 08:00:36;;;;;;;7.35;3.13;;;;;;;8.48;97.02;100899.84;5076704;28;20044;-35
2023/04/14 08:03:01;;;;;;;7.03;2.47;;;;;;;8.55;98.88;100888.25;5076331;28;20036;-35
2023/04/14 08:05:27;;;;;;;5.15;2.40;;;;;;;8.72;97.18;100906.34;5076625;28;20016;-35
2023/04/14 08:07:52;;;;;;;5.70;2.33;;;;;;;8.85;96.34;100908.16;5077076;28;20081;-35
2023/04/14 08:10:17;;;;;;;4.83;1.97;;;;;;;8.94;94.74;100903.31;5076514;28;20020;-36
2023/04/14 08:12:43;;;;;;;3.97;1.77;;;;;;;9.08;94.78;100906.72;5076210;28;20518;-36
2023/04/14 08:15:08;;;;;;;3.43;1.80;;;;;;;9.16;91.34;100906.47;5076464;28;20024;-36
2023/04/14 08:17:34;;;;;;;5.38;1.65;;;;;;;9.26;90.29;100914.88;5076391;28;20028;-35
2023/04/14 08:19:59;;;;;;;4.50;1.70;;;;;;;9.34;90.88;100911.91;5076135;28;20428;-36
2023/04/14 08:22:24;;;;;;;4.07;1.75;;;;;;;9.34;89.98;100911.91;5076269;28;20405;-35
2023/04/14 08:24:50;;;;;;;5.77;2.07;;;;;;;9.33;89.15;100910.28;5076298;28;20075;-35
2023/04/14 08:27:15;;;;;;;4.40;1.42;;;;;;;9.30;89.47;100891.81;5076163;28;20051;-35
2023/04/14 08:29:41;;;;;;;4.17;1.80;;;;;;;9.47;91.45;100902.88;5076478;28;20027;-35
2023/04/14 08:32:06;;;;;;;4.70;2.23;;;;;;;9.61;89.28;100908.97;5076412;28;20399;-35
2023/04/14 08:34:32;;;;;;;5.22;2.05;;;;;;;9.71;89.86;100903.88;5075637;28;20052;-35
2023/04/14 08:36:59;;;;;;;3.10;1.60;;;;;;;9.86;87.26;100904.34;5076856;28;20020;-35
2023/04/14 08:39:25;;;;;;;6.70;2.22;;;;;;;9.79;85.12;100885.50;5075967;28;20035;-35
2023/04/14 08:41:52;;;;;;;4.47;1.88;;;;;;;10.04;86.69;100904.31;5075891;28;20027;-35
2023/04/14 08:44:17;;;;;;;5.45;1.85;;;;;;;10.13;86.82;100907.56;5076211;28;20032;-35
2023/04/14 08:46:44;;;;;;;7.53;1.85;;;;;;;10.25;87.52;100904.97;5076759;28;20029;-35
2023/04/14 08:49:16;;;;;;;8.48;2.30;;;;;;;10.33;84.22;100907.34;5075805;28;20032;-35
2023/04/14 08:51:44;;;;;;;4.55;1.95;;;;;;;10.29;81.84;100896.16;5076083;28;20115;-36
2023/04/14 08:54:14;;;;;;;4.82;1.60;;;;;;;10.44;83.20;100901.19;5075673;28;20074;-37
2023/04/14 08:56:40;;;;;;;5.22;1.90;;;;;;;10.55;80.31;100894.16;5075699;28;20028;-35
2023/04/14 08:59:07;;;;;;;3.40;1.35;;;;;;;10.71;82.20;100898.91;5075310;28;20020;-35
2023/04/14 09:01:34;;;;;;;5.45;1.70;;;;;;;10.81;80.88;100892.94;5076407;28;20048;-35
2023/04/14 09:04:03;;;;;;;3.97;1.60;;;;;;;10.93;78.42;100901.94;5075305;28;20119;-35
2023/04/14 09:06:30;;;;;;;4.93;1.70;;;;;;;10.95;77.13;100899.81;5075749;28;20031;-35
2023/04/14 09:08:57;;;;;;;3.05;1.02;;;;;;;10.96;73.44;100901.44;5075059;28;20033;-35
2023/04/14 09:11:23;;;;;;;3.47;1.17;;;;;;;11.01;72.44;100900.75;5075659;28;20036;-35
2023/04/14 09:13:48;;;;;;;;;;;;;;;11.08;75.22;100896.06;5075830;28;20066;-35
2023/04/14 09:16:16;;;;;;;4.20;1.02;;;;;;;11.14;73.38;100892.44;5075372;28;19916;-35
2023/04/14 09:18:42;;;;;;;2.65;1.17;;;;;;;11.20;73.22;100890.66;5075196;28;20024;-35
2023/04/14 09:21:08;;;;;;;4.60;1.65;;;;;;;11.25;72.26;100890.78;5075982;28;20020;-35
2023/04/14 09:23:34;;;;;;;2.95;1.05;;;;;;;11.36;73.60;100884.53;5076199;28;20418;-35
2023/04/14 09:26:00;;;;;;;4.47;1.40;;;;;;;11.45;73.82;100882.31;5075657;28;20024;-35
2023/04/14 09:28:25;;;;;;;2.63;1.27;;;;;;;11.68;73.60;100892.31;5074994;28;20271;-35
2023/04/14 09:30:51;;;;;;;3.40;1.30;;;;;;;11.76;73.11;100884.66;5075626;28;20039;-35
2023/04/14 09:33:21;;;;;;;5.68;1.55;;;;;;;11.69;72.08;100866.88;5074891;28;20077;-35
2023/04/14 09:35:50;;;;;;;3.25;1.10;;;;;;;11.73;73.88;100873.47;5074961;28;20111;-35
2023/04/14 09:38:37;;;;;;;4.18;1.38;;;;;;;11.73;71.80;100878.88;5074775;28;20059;-35
2023/04/14 09:41:04;;;;;;;8.02;1.90;;;;;;;11.72;71.76;100878.06;5075307;28;20024;-35
2023/04/14 09:43:30;;;;;;;3.53;1.20;;;;;;;11.83;73.61;100874.53;5074730;28;20461;-35
2023/04/14 09:45:57;;;;;;;3.03;1.05;;;;;;;11.83;70.91;100869.13;5074428;28;20044;-35
2023/04/14 09:48:23;;;;;;;3.70;1.40;;;;;;;11.91;69.95;100853.53;5074638;28;20029;-35
2023/04/14 09:51:04;;;;;;;2.10;1.02;;;;;;;12.06;70.27;100862.84;5074406;28;20024;-35
2023/04/14 09:53:32;;;;;;;4.47;1.17;;;;;;;12.22;69.30;100861.25;5073363;28;20024;-35
2023/04/14 09:55:58;;;;;;;3.13;1.10;;;;;;;12.32;68.15;100853.31;5073698;28;20441;-35
2023/04/14 09:58:28;;;;;;;3.10;1.08;;;;;;;12.37;68.02;100852.56;5074306;28;20031;-35
2023/04/14 10:00:53;;;;;;;5.45;1.40;;;;;;;12.47;67.75;100844.63;5074434;28;20048;-35
2023/04/14 10:03:36;;;;;;;5.57;1.77;;;;;;;12.56;67.29;100842.34;5074920;28;20021;-36
2023/04/14 10:06:06;;;;;;;4.40;1.20;;;;;;;12.69;67.02;100854.75;5074562;28;20024;-35
2023/04/14 10:08:39;;;;;;;2.90;1.20;;;;;;;12.75;67.63;100841.06;5073923;28;20115;-36
2023/04/14 10:11:19;;;;;;;4.20;1.10;;;;;;;12.82;66.30;100844.41;5074443;28;20346;-35
2023/04/14 10:14:06;;;;;;;3.80;1.10;;;;;;;12.55;66.79;100846.13;5074052;28;20031;-35
2023/04/14 10:16:32;;;;;;;4.75;1.10;;;;;;;12.47;66.90;100836.50;5074333;28;20070;-35
2023/04/14 10:18:58;;;;;;;4.60;1.20;;;;;;;12.70;68.87;100832.84;5074033;28;20024;-35
2023/04/14 10:21:24;;;;;;;4.07;1.63;;;;;;;12.89;67.83;100833.44;5074007;28;20024;-35
2023/04/14 10:23:51;;;;;;;3.25;1.35;;;;;;;13.08;65.73;100831.28;5073956;28;20021;-35
2023/04/14 10:26:18;;;;;;;3.03;1.17;;;;;;;13.25;64.12;100828.56;5073322;28;20031;-35
2023/04/14 10:28:47;;;;;;;3.05;1.15;;;;;;;13.45;65.11;100822.59;5073841;28;20021;-35
2023/04/14 10:31:22;;;;;;;3.95;1.20;;;;;;;13.62;64.80;100832.38;5074673;28;20055;-35
2023/04/14 10:33:48;;;;;;;3.63;1.27;;;;;;;13.67;62.68;100822.66;5073499;28;20103;-35
2023/04/14 10:36:23;;;;;;;3.42;1.40;;;;;;;13.32;61.53;100818.34;5073566;28;20103;-35
2023/04/14 10:38:49;;;;;;;5.15;1.50;;;;;;;13.30;61.59;100821.31;5073759;28;20024;-36
2023/04/14 10:41:14;;;;;;;3.10;1.10;;;;;;;13.38;61.65;100810.03;5074038;28;20082;-35
2023/04/14 10:43:40;;;;;;;4.90;1.20;;;;;;;13.48;60.40;100808.53;5073742;28;20485;-35
2023/04/14 10:46:06;;;;;;;;;;;;;;;13.54;64.43;100815.69;5073932;28;20282;-35
2023/04/14 10:48:33;;;;;;;2.78;1.10;;;;;;;13.36;61.44;100801.31;5073701;28;19904;-35
2023/04/14 10:51:01;;;;;;;3.42;1.17;;;;;;;13.62;62.56;100804.38;5073693;28;20150;-36
2023/04/14 10:53:34;;;;;;;3.25;1.08;;;;;;;13.61;61.41;100802.72;5073560;28;20024;-35
2023/04/14 10:56:02;;;;;;;5.07;1.15;;;;;;;13.57;60.97;100797.00;5073696;28;20032;-36
2023/04/14 10:58:28;;;;;;;2.35;1.00;;;;;;;13.77;63.10;100806.47;5074373;28;20021;-35
2023/04/14 11:00:56;;;;;;;3.70;1.13;;;;;;;13.84;62.66;100805.19;5073478;28;20059;-36
2023/04/14 11:03:22;;;;;;;3.50;1.00;;;;;;;14.02;61.37;100798.59;5073520;28;20035;-36
2023/04/14 11:05:48;;;;;;;2.30;0.95;;;;;;;14.17;60.75;100790.63;5073547;28;20020;-35
2023/04/14 11:08:25;;;;;;;4.20;1.10;;;;;;;14.22;60.03;100781.69;5073467;28;20052;-36
2023/04/14 11:11:00;;;;;;;2.92;0.95;;;;;;;14.43;60.97;100785.41;5073442;28;20480;-36
2023/04/14 11:13:25;;;;;;;3.92;1.42;;;;;;;14.65;60.34;100786.22;5073146;28;20020;-35
2023/04/14 11:16:05;;;;;;;3.88;1.33;;;;;;;14.57;58.90;100791.28;5073985;28;20028;-35
2023/04/14 11:18:34;;;;;;;3.85;1.10;;;;;;;14.38;57.75;100788.91;5073078;28;20020;-35
2023/04/14 11:21:07;;;;;;;3.63;1.00;;;;;;;14.04;57.51;100780.13;5073000;28;20142;-35
2023/04/14 11:23:34;;;;;;;3.25;1.02;;;;;;;13.76;57.57;100780.34;5073358;28;20035;-35
2023/04/14 11:26:00;;;;;;;4.03;1.17;;;;;;;13.87;59.62;100787.56;5074189;28;20031;-35
2023/04/14 11:28:30;;;;;;;3.70;1.23;;;;;;;13.95;59.17;100787.09;5073355;28;20024;-36